Time;durP1;ratioP1;P1;durP2;ratioP2;P2;SDS_P1;SDS_P2;PMS_P1;PMS_P2;Temp;Humidity;BMP_temperature;BMP_pressure;BME280_temperature;BME280_humidity;BME280_pressure;Samples;Min_cycle;Max_cycle;Signal;HPM_P1;HPM_P2
2023/12/26 00:00:49;;;;;;;326.40;148.77;;;3.70;99.90;;;;;;4996207;28;20103;-56
2023/12/26 00:03:16;;;;;;;321.55;149.50;;;3.70;99.90;;;;;;4996918;28;20031;-55
2023/12/26 00:05:42;;;;;;;312.63;141.90;;;3.70;99.90;;;;;;4996688;28;20054;-55
2023/12/26 00:08:08;;;;;;;302.63;133.95;;;3.70;99.90;;;;;;4996581;28;20026;-55
2023/12/26 00:10:35;;;;;;;305.90;142.50;;;3.70;99.90;;;;;;4996503;28;20507;-56
2023/12/26 00:13:01;;;;;;;294.65;138.52;;;3.70;99.90;;;;;;4996376;28;20404;-55
2023/12/26 00:15:27;;;;;;;288.63;136.35;;;3.70;99.90;;;;;;4996565;28;20395;-55
2023/12/26 00:17:53;;;;;;;316.02;142.80;;;3.70;99.90;;;;;;4996403;28;20038;-55
2023/12/26 00:20:19;;;;;;;312.05;142.00;;;3.50;99.90;;;;;;4996144;28;20069;-55
2023/12/26 00:22:45;;;;;;;295.85;136.13;;;3.60;99.90;;;;;;4996300;28;20044;-55
2023/12/26 00:25:11;;;;;;;296.80;136.38;;;3.60;99.90;;;;;;4996393;28;20034;-55
2023/12/26 00:27:39;;;;;;;287.77;136.38;;;3.50;99.90;;;;;;4996071;28;20026;-55
2023/12/26 00:30:08;;;;;;;277.58;128.23;;;3.50;99.90;;;;;;4996262;28;20030;-55
2023/12/26 00:32:34;;;;;;;284.83;134.13;;;3.40;99.90;;;;;;4996266;28;20113;-55
2023/12/26 00:35:00;;;;;;;286.15;133.52;;;3.40;99.90;;;;;;4996018;28;20495;-56
2023/12/26 00:37:27;;;;;;;287.75;136.45;;;3.40;99.90;;;;;;4996064;28;20058;-55
2023/12/26 00:39:53;;;;;;;291.92;130.38;;;3.40;99.90;;;;;;4994901;28;20034;-55
2023/12/26 00:42:19;;;;;;;278.52;132.25;;;3.50;99.90;;;;;;4995963;28;20502;-55
2023/12/26 00:44:45;;;;;;;284.15;133.80;;;3.50;99.90;;;;;;4994774;28;20369;-55
2023/12/26 00:47:11;;;;;;;283.85;133.15;;;3.50;99.90;;;;;;4996192;28;20022;-56
2023/12/26 00:49:37;;;;;;;284.50;134.45;;;3.40;99.90;;;;;;4994215;28;20495;-55
2023/12/26 00:52:03;;;;;;;279.50;132.07;;;3.40;99.90;;;;;;4994801;28;20030;-55
2023/12/26 00:54:29;;;;;;;282.38;131.77;;;3.30;99.90;;;;;;4994696;28;20026;-55
2023/12/26 00:56:55;;;;;;;262.02;124.30;;;3.30;99.90;;;;;;4994509;28;20062;-56
2023/12/26 00:59:20;;;;;;;249.55;117.65;;;3.30;99.90;;;;;;4995968;28;20030;-55
2023/12/26 01:01:46;;;;;;;258.95;122.50;;;3.20;99.90;;;;;;4994551;28;20395;-56
2023/12/26 01:04:13;;;;;;;268.17;122.70;;;3.20;99.90;;;;;;4994497;28;20490;-55
2023/12/26 01:06:39;;;;;;;259.58;123.97;;;3.10;99.90;;;;;;4995882;28;20026;-55
2023/12/26 01:09:05;;;;;;;254.48;122.05;;;3.00;99.90;;;;;;4994583;28;20041;-55
2023/12/26 01:11:32;;;;;;;279.10;129.82;;;3.00;99.90;;;;;;4994423;28;20049;-55
2023/12/26 01:13:58;;;;;;;265.35;125.78;;;3.00;99.90;;;;;;4996308;28;20062;-55
2023/12/26 01:16:27;;;;;;;329.73;146.45;;;2.90;99.90;;;;;;4999825;28;20500;-55
2023/12/26 01:18:53;;;;;;;463.83;191.57;;;2.90;99.90;;;;;;4999752;28;20030;-55
2023/12/26 01:21:19;;;;;;;413.35;179.57;;;2.90;99.90;;;;;;4998395;28;20041;-55
2023/12/26 01:23:45;;;;;;;364.05;158.23;;;2.90;99.90;;;;;;4998458;28;20018;-55
2023/12/26 01:26:11;;;;;;;362.48;158.90;;;3.00;99.90;;;;;;4998235;28;20052;-55
2023/12/26 01:28:37;;;;;;;524.88;224.20;;;3.10;99.90;;;;;;4998373;28;20022;-56
2023/12/26 01:31:04;;;;;;;484.35;204.32;;;3.10;99.90;;;;;;4997974;28;20026;-56
2023/12/26 01:33:30;;;;;;;389.70;161.40;;;2.90;99.90;;;;;;4999412;28;20153;-55
2023/12/26 01:35:59;;;;;;;324.98;141.48;;;2.90;99.90;;;;;;4998232;28;20476;-55
2023/12/26 01:38:25;;;;;;;311.65;136.95;;;3.00;99.90;;;;;;4997841;28;20558;-55
2023/12/26 01:40:50;;;;;;;336.60;147.57;;;3.10;99.90;;;;;;4999173;28;20105;-55
2023/12/26 01:43:17;;;;;;;371.95;147.77;;;3.10;99.90;;;;;;4998092;28;20026;-55
2023/12/26 01:45:43;;;;;;;346.38;147.15;;;2.90;99.90;;;;;;4997935;28;20026;-56
2023/12/26 01:48:10;;;;;;;305.35;133.90;;;2.80;99.90;;;;;;4998991;28;20033;-55
2023/12/26 01:50:37;;;;;;;268.42;125.00;;;2.80;99.90;;;;;;4997556;28;20046;-55
2023/12/26 01:53:05;;;;;;;270.33;122.72;;;2.90;99.90;;;;;;4998204;28;20030;-55
2023/12/26 01:55:32;;;;;;;284.10;129.43;;;2.90;99.90;;;;;;4999019;28;20034;-55
2023/12/26 01:58:00;;;;;;;354.42;166.32;;;2.80;99.90;;;;;;4997824;28;20028;-56
2023/12/26 02:00:26;;;;;;;369.52;179.50;;;2.80;99.90;;;;;;4997735;28;20049;-55
2023/12/26 02:02:53;;;;;;;298.90;140.70;;;2.70;99.90;;;;;;4998592;28;20039;-56
2023/12/26 02:05:19;;;;;;;297.00;137.05;;;2.70;99.90;;;;;;4997788;28;20388;-55
2023/12/26 02:07:45;;;;;;;262.65;125.30;;;2.70;99.90;;;;;;4997598;28;20030;-55
2023/12/26 02:10:11;;;;;;;267.58;123.85;;;2.70;99.90;;;;;;4998526;28;20030;-55
2023/12/26 02:12:37;;;;;;;272.83;129.57;;;2.60;99.90;;;;;;4997603;28;20042;-55
2023/12/26 02:15:04;;;;;;;235.43;113.25;;;2.60;99.90;;;;;;4997448;28;20113;-55
2023/12/26 02:17:31;;;;;;;243.15;111.60;;;2.50;99.90;;;;;;4997107;28;20038;-55
2023/12/26 02:19:57;;;;;;;239.30;113.95;;;2.40;99.90;;;;;;4998580;28;20381;-55
2023/12/26 02:22:23;;;;;;;261.15;120.53;;;2.30;99.90;;;;;;4998617;28;20035;-55
2023/12/26 02:24:49;;;;;;;240.18;110.50;;;2.30;99.90;;;;;;4996566;28;20057;-55
2023/12/26 02:27:25;;;;;;;221.48;101.05;;;2.30;99.90;;;;;;4998553;28;20093;-55
2023/12/26 02:29:53;;;;;;;232.20;108.03;;;2.30;99.90;;;;;;4997249;28;20038;-55
2023/12/26 02:32:25;;;;;;;306.85;134.18;;;2.20;99.90;;;;;;4998234;28;20050;-55
2023/12/26 02:34:55;;;;;;;264.70;120.40;;;2.20;99.90;;;;;;4998468;28;20049;-55
2023/12/26 02:37:25;;;;;;;242.23;109.57;;;2.20;99.90;;;;;;4995947;28;20096;-55
2023/12/26 02:39:51;;;;;;;224.38;102.60;;;2.20;99.90;;;;;;4997965;28;20034;-56
2023/12/26 02:42:19;;;;;;;222.13;100.00;;;2.20;99.90;;;;;;4997023;28;20050;-56
2023/12/26 02:44:45;;;;;;;280.13;135.07;;;2.20;99.90;;;;;;4998175;28;20053;-55
2023/12/26 02:47:11;;;;;;;287.85;135.23;;;2.20;99.90;;;;;;4997853;28;20023;-55
2023/12/26 02:49:37;;;;;;;267.85;124.82;;;2.10;99.90;;;;;;4998047;28;20084;-55
2023/12/26 02:52:03;;;;;;;251.30;118.15;;;2.20;99.90;;;;;;4996855;28;20042;-55
2023/12/26 02:54:29;;;;;;;241.88;112.93;;;2.20;99.90;;;;;;4997693;28;20026;-55
2023/12/26 02:56:55;;;;;;;211.68;98.60;;;2.20;99.90;;;;;;4996795;28;20546;-55
2023/12/26 02:59:21;;;;;;;216.50;101.05;;;2.20;99.90;;;;;;4997828;28;20030;-55
2023/12/26 03:01:48;;;;;;;216.30;103.10;;;2.10;99.90;;;;;;4997736;28;20137;-55
2023/12/26 03:04:14;;;;;;;226.07;105.07;;;2.10;99.90;;;;;;4997999;28;20025;-56
2023/12/26 03:06:40;;;;;;;230.27;108.68;;;2.10;99.90;;;;;;4996681;28;20085;-56
2023/12/26 03:09:06;;;;;;;233.02;111.60;;;2.10;99.90;;;;;;4996427;28;20146;-55
2023/12/26 03:11:32;;;;;;;235.23;108.22;;;2.00;99.90;;;;;;4996329;28;20038;-56
2023/12/26 03:14:01;;;;;;;234.02;110.05;;;2.00;99.90;;;;;;4996513;28;20034;-55
2023/12/26 03:16:28;;;;;;;198.38;92.50;;;2.00;99.90;;;;;;4997643;28;20042;-55
2023/12/26 03:18:53;;;;;;;192.25;91.22;;;2.00;99.90;;;;;;4996067;28;20487;-55
2023/12/26 03:21:22;;;;;;;205.48;92.65;;;2.00;99.90;;;;;;4997557;28;20117;-56
2023/12/26 03:23:50;;;;;;;209.95;95.63;;;1.90;99.90;;;;;;4996129;28;20094;-55
2023/12/26 03:26:15;;;;;;;211.00;97.63;;;1.90;99.90;;;;;;4996005;28;20026;-55
2023/12/26 03:28:41;;;;;;;223.50;103.43;;;1.90;99.90;;;;;;4996161;28;20045;-55
2023/12/26 03:31:07;;;;;;;209.57;100.68;;;1.90;99.90;;;;;;4997163;28;20045;-55
2023/12/26 03:33:36;;;;;;;185.05;85.45;;;1.90;99.90;;;;;;4996994;28;20096;-55
2023/12/26 03:36:03;;;;;;;225.02;99.78;;;1.90;99.90;;;;;;4995218;28;20038;-55
2023/12/26 03:38:29;;;;;;;199.27;93.57;;;1.90;99.90;;;;;;4996882;28;20503;-55
2023/12/26 03:40:55;;;;;;;192.25;86.38;;;1.90;99.90;;;;;;4996949;28;20022;-55
2023/12/26 03:43:21;;;;;;;196.25;90.18;;;1.90;99.90;;;;;;4995917;28;20065;-55
2023/12/26 03:45:49;;;;;;;194.02;90.18;;;1.90;99.90;;;;;;4995886;28;20030;-55
2023/12/26 03:48:15;;;;;;;182.25;81.43;;;1.90;99.90;;;;;;4995308;28;20023;-56
2023/12/26 03:50:41;;;;;;;178.13;82.55;;;1.90;99.90;;;;;;4996960;28;20033;-55
2023/12/26 03:53:07;;;;;;;171.68;81.03;;;2.00;99.90;;;;;;4995815;28;20053;-55
2023/12/26 03:55:34;;;;;;;178.10;81.35;;;2.00;99.90;;;;;;4995440;28;20033;-56
2023/12/26 03:58:00;;;;;;;163.20;77.80;;;1.90;99.90;;;;;;4995576;28;20035;-55
2023/12/26 04:00:28;;;;;;;156.60;75.88;;;1.80;99.90;;;;;;4995514;28;20038;-55
2023/12/26 04:02:54;;;;;;;157.48;75.82;;;1.90;99.90;;;;;;4995193;28;20031;-55
2023/12/26 04:05:20;;;;;;;151.65;72.65;;;1.80;99.90;;;;;;4996648;28;20032;-55
2023/12/26 04:07:46;;;;;;;137.30;66.65;;;1.70;99.90;;;;;;4995454;28;20034;-55
2023/12/26 04:10:12;;;;;;;150.80;68.40;;;1.80;99.90;;;;;;4995100;28;20034;-56
2023/12/26 04:12:37;;;;;;;155.57;69.70;;;1.80;99.90;;;;;;4995379;28;20041;-55
2023/12/26 04:15:04;;;;;;;145.23;69.20;;;1.80;99.90;;;;;;4995649;28;20085;-55
2023/12/26 04:17:30;;;;;;;160.88;73.75;;;1.80;99.90;;;;;;4994932;28;20038;-55
2023/12/26 04:19:56;;;;;;;151.23;71.65;;;1.80;99.90;;;;;;4996296;28;20038;-55
2023/12/26 04:22:21;;;;;;;155.05;74.22;;;1.80;99.90;;;;;;4995407;28;20479;-55
2023/12/26 04:24:47;;;;;;;169.55;80.53;;;1.80;99.90;;;;;;4995023;28;20026;-55
2023/12/26 04:27:13;;;;;;;152.55;70.03;;;1.90;99.90;;;;;;4995141;28;20030;-55
2023/12/26 04:29:39;;;;;;;155.30;70.60;;;1.70;99.90;;;;;;4995137;28;20361;-55
2023/12/26 04:32:06;;;;;;;156.52;70.20;;;1.70;99.90;;;;;;4995947;28;20448;-55
2023/12/26 04:34:32;;;;;;;155.80;71.50;;;1.70;99.90;;;;;;4994949;28;20030;-55
2023/12/26 04:36:58;;;;;;;155.95;69.22;;;1.80;99.90;;;;;;4994728;28;20096;-55
2023/12/26 04:39:24;;;;;;;143.18;68.35;;;1.80;99.90;;;;;;4994867;28;20187;-55
2023/12/26 04:41:50;;;;;;;147.82;67.57;;;1.60;99.90;;;;;;4996288;28;20054;-55
2023/12/26 04:44:16;;;;;;;151.15;70.03;;;1.60;99.90;;;;;;4994809;28;20476;-55
2023/12/26 04:46:42;;;;;;;150.73;69.20;;;1.60;99.90;;;;;;4994452;28;20109;-55
2023/12/26 04:49:08;;;;;;;152.23;73.03;;;1.50;99.90;;;;;;4994653;28;20038;-55
2023/12/26 04:51:34;;;;;;;135.63;67.25;;;1.50;99.90;;;;;;4994825;28;20030;-55
2023/12/26 04:54:01;;;;;;;135.23;64.10;;;1.60;99.90;;;;;;4994653;28;20037;-55
2023/12/26 04:56:27;;;;;;;140.30;65.07;;;1.60;99.90;;;;;;4994725;28;20061;-55
2023/12/26 04:58:53;;;;;;;139.57;66.60;;;1.70;99.90;;;;;;4994544;28;20061;-55
2023/12/26 05:01:20;;;;;;;158.18;68.97;;;1.60;99.90;;;;;;4995798;28;20027;-55
2023/12/26 05:03:47;;;;;;;147.50;68.70;;;1.60;99.90;;;;;;4994606;28;20030;-55
2023/12/26 05:06:17;;;;;;;138.48;65.40;;;1.50;99.90;;;;;;4994700;28;20041;-55
2023/12/26 05:08:44;;;;;;;139.88;66.82;;;1.50;99.90;;;;;;4994521;28;20117;-55
2023/12/26 05:11:23;;;;;;;146.77;63.45;;;1.60;99.90;;;;;;4994553;28;20030;-55
2023/12/26 05:13:50;;;;;;;135.02;62.45;;;1.60;99.90;;;;;;4994640;28;20030;-55
2023/12/26 05:16:17;;;;;;;131.02;62.40;;;1.70;99.90;;;;;;4995539;28;20427;-56
2023/12/26 05:18:44;;;;;;;137.13;61.30;;;1.60;99.90;;;;;;4994531;28;20048;-55
2023/12/26 05:21:21;;;;;;;135.32;61.78;;;1.60;99.90;;;;;;4994594;28;20077;-55
2023/12/26 05:23:48;;;;;;;150.43;61.75;;;1.70;99.90;;;;;;4994239;28;20027;-56
2023/12/26 05:26:15;;;;;;;133.63;59.67;;;1.50;99.90;;;;;;4994479;28;20022;-56
2023/12/26 05:28:42;;;;;;;129.73;61.40;;;1.40;99.90;;;;;;4994446;28;20076;-56
2023/12/26 05:31:08;;;;;;;136.25;63.88;;;1.50;99.90;;;;;;4994139;28;20073;-55
2023/12/26 05:33:34;;;;;;;144.40;63.25;;;1.60;99.90;;;;;;4994480;28;20080;-56
2023/12/26 05:36:04;;;;;;;149.02;69.90;;;1.50;99.90;;;;;;4994517;28;20057;-55
2023/12/26 05:38:30;;;;;;;130.57;64.20;;;1.40;99.90;;;;;;4993741;28;20519;-56
2023/12/26 05:40:57;;;;;;;135.20;66.43;;;1.40;99.90;;;;;;4994462;28;20030;-55
2023/12/26 05:43:22;;;;;;;123.07;59.22;;;1.50;99.90;;;;;;4994263;28;20038;-55
2023/12/26 05:45:48;;;;;;;130.05;61.83;;;1.40;99.90;;;;;;4993840;28;20033;-55
2023/12/26 05:48:14;;;;;;;159.75;72.32;;;1.50;99.90;;;;;;4994297;28;20033;-56
2023/12/26 05:50:41;;;;;;;138.25;65.22;;;1.60;99.90;;;;;;4994165;28;20567;-55
2023/12/26 05:53:07;;;;;;;152.73;67.18;;;1.70;99.90;;;;;;4994140;28;20081;-56
2023/12/26 05:55:33;;;;;;;174.23;78.32;;;1.80;99.90;;;;;;4994246;28;20034;-56
2023/12/26 05:57:59;;;;;;;184.07;86.22;;;1.90;99.90;;;;;;4994134;28;20113;-56
2023/12/26 06:00:26;;;;;;;207.15;92.18;;;1.90;99.90;;;;;;4996384;28;20030;-55
2023/12/26 06:02:52;;;;;;;208.90;96.70;;;1.80;99.90;;;;;;4997859;28;20031;-56
2023/12/26 06:05:18;;;;;;;199.02;89.00;;;2.00;99.90;;;;;;4997696;28;20050;-56
2023/12/26 06:07:44;;;;;;;213.48;90.45;;;2.00;99.90;;;;;;4997370;28;20065;-55
2023/12/26 06:10:10;;;;;;;180.77;74.95;;;2.00;99.90;;;;;;4997562;28;20113;-55
2023/12/26 06:12:37;;;;;;;159.80;67.65;;;1.90;99.90;;;;;;4997271;28;20038;-56
2023/12/26 06:15:03;;;;;;;158.48;70.88;;;1.90;99.90;;;;;;4997137;28;20045;-56
2023/12/26 06:17:29;;;;;;;168.18;74.53;;;1.80;99.90;;;;;;4996909;28;20080;-56
2023/12/26 06:19:56;;;;;;;164.10;72.82;;;1.70;99.90;;;;;;4996722;28;20057;-56
2023/12/26 06:22:22;;;;;;;176.60;76.50;;;1.70;99.90;;;;;;4998121;28;20026;-56
2023/12/26 06:24:48;;;;;;;173.32;71.95;;;1.70;99.90;;;;;;4996559;28;20042;-56
2023/12/26 06:27:14;;;;;;;165.55;74.53;;;1.60;99.90;;;;;;4994107;28;20034;-56
2023/12/26 06:29:40;;;;;;;172.55;75.70;;;1.60;99.90;;;;;;5005942;28;20036;-56
2023/12/26 06:32:07;;;;;;;173.55;75.55;;;1.70;99.90;;;;;;5009023;28;20053;-56
2023/12/26 06:34:33;;;;;;;168.45;73.85;;;1.80;99.90;;;;;;4996366;28;20033;-55
2023/12/26 06:36:59;;;;;;;177.20;72.53;;;1.80;99.90;;;;;;4998159;28;20053;-56
2023/12/26 06:39:25;;;;;;;148.63;68.43;;;1.70;99.90;;;;;;5028869;28;20030;-56
2023/12/26 06:41:51;;;;;;;169.38;71.50;;;1.70;99.90;;;;;;5016481;28;20038;-56
2023/12/26 06:44:17;;;;;;;155.95;70.75;;;1.60;99.90;;;;;;5016128;28;20030;-55
2023/12/26 06:46:43;;;;;;;161.52;71.68;;;1.60;99.90;;;;;;5002717;28;20026;-56
2023/12/26 06:49:10;;;;;;;174.98;78.78;;;1.70;99.90;;;;;;4996204;28;20038;-56
2023/12/26 06:51:39;;;;;;;155.75;68.22;;;1.50;99.90;;;;;;5012336;28;20033;-56
2023/12/26 06:54:07;;;;;;;182.80;75.45;;;1.50;99.90;;;;;;4996977;28;20041;-56
2023/12/26 06:56:33;;;;;;;152.35;64.00;;;1.50;99.90;;;;;;4993117;28;20023;-56
2023/12/26 06:58:59;;;;;;;155.18;68.35;;;1.60;99.90;;;;;;4992876;28;20042;-55
2023/12/26 07:01:25;;;;;;;147.80;58.88;;;1.80;99.90;;;;;;4993382;28;20027;-55
2023/12/26 07:03:51;;;;;;;139.80;53.55;;;1.70;99.90;;;;;;5008510;28;20387;-55
2023/12/26 07:06:17;;;;;;;166.27;54.50;;;1.70;99.90;;;;;;4997409;28;20069;-55
2023/12/26 07:08:44;;;;;;;141.50;52.03;;;1.70;99.90;;;;;;4996184;28;20058;-56
2023/12/26 07:11:10;;;;;;;179.93;59.40;;;1.70;99.90;;;;;;4997514;28;20023;-55
2023/12/26 07:13:36;;;;;;;189.15;55.40;;;1.90;99.90;;;;;;4997258;28;20069;-56
2023/12/26 07:16:02;;;;;;;192.60;48.65;;;1.80;99.90;;;;;;4997523;28;20018;-57
2023/12/26 07:18:28;;;;;;;177.63;55.83;;;1.80;99.90;;;;;;4998146;28;20034;-57
2023/12/26 07:20:54;;;;;;;185.55;54.17;;;1.60;99.90;;;;;;4997390;28;20042;-57
2023/12/26 07:23:20;;;;;;;202.38;55.55;;;1.70;99.90;;;;;;5002718;28;20059;-57
2023/12/26 07:25:45;;;;;;;231.05;67.40;;;2.00;99.90;;;;;;4987871;28;20031;-57
2023/12/26 07:28:14;;;;;;;224.40;58.92;;;2.80;99.90;;;;;;5003492;28;20026;-57
2023/12/26 07:30:40;;;;;;;211.07;61.65;;;3.40;99.90;;;;;;4996165;28;20025;-57
2023/12/26 07:33:06;;;;;;;199.05;57.40;;;4.60;99.90;;;;;;5001003;28;20041;-57
2023/12/26 07:35:37;;;;;;;187.90;61.17;;;5.40;99.90;;;;;;4997422;28;20022;-57
2023/12/26 07:38:04;;;;;;;157.73;60.03;;;6.70;99.90;;;;;;4996846;28;20034;-57
2023/12/26 07:40:31;;;;;;;157.73;68.13;;;7.70;98.40;;;;;;4991015;28;20082;-57
2023/12/26 07:42:57;;;;;;;164.75;62.80;;;8.50;96.80;;;;;;4991178;28;20045;-57
2023/12/26 07:45:25;;;;;;;147.48;60.28;;;9.50;93.50;;;;;;5003088;28;20372;-58
2023/12/26 07:47:51;;;;;;;173.43;62.03;;;9.90;90.10;;;;;;4992674;28;20022;-57
2023/12/26 07:50:17;;;;;;;155.30;70.38;;;10.70;89.10;;;;;;4996295;28;20054;-58
2023/12/26 07:52:43;;;;;;;167.05;76.03;;;11.80;82.80;;;;;;4976699;28;20397;-57
2023/12/26 07:55:10;;;;;;;160.15;74.43;;;12.50;77.10;;;;;;4977903;28;20468;-58
2023/12/26 07:57:36;;;;;;;180.63;87.05;;;12.60;74.60;;;;;;4979696;28;20038;-57
2023/12/26 08:00:02;;;;;;;234.52;104.90;;;13.30;70.30;;;;;;4996645;28;20034;-58
2023/12/26 08:02:38;;;;;;;224.43;105.57;;;13.70;67.80;;;;;;4993508;28;20038;-58
2023/12/26 08:05:04;;;;;;;239.57;119.55;;;13.90;68.70;;;;;;4988906;28;20384;-58
2023/12/26 08:07:30;;;;;;;259.65;119.65;;;14.50;63.40;;;;;;4995318;28;20395;-58
2023/12/26 08:09:55;;;;;;;192.63;96.13;;;15.00;62.80;;;;;;4996886;28;20018;-58
2023/12/26 08:12:21;;;;;;;162.90;80.95;;;16.00;60.10;;;;;;4996830;28;20038;-58
2023/12/26 08:14:47;;;;;;;211.02;98.53;;;17.60;55.00;;;;;;4995038;28;20431;-58
2023/12/26 08:17:13;;;;;;;237.27;114.07;;;16.70;50.00;;;;;;4996507;28;20049;-58
2023/12/26 08:19:39;;;;;;;251.10;113.22;;;16.80;52.00;;;;;;4995842;28;20030;-58
2023/12/26 08:22:05;;;;;;;252.85;122.72;;;17.20;51.10;;;;;;4996093;28;20068;-58
2023/12/26 08:24:30;;;;;;;287.52;139.57;;;17.10;49.40;;;;;;4996874;28;20029;-58
2023/12/26 08:26:57;;;;;;;323.50;148.68;;;16.60;48.70;;;;;;4995206;28;20049;-58
2023/12/26 08:29:23;;;;;;;303.98;151.32;;;16.40;50.00;;;;;;4987597;28;20030;-58
2023/12/26 08:31:49;;;;;;;285.17;152.13;;;16.40;51.00;;;;;;4988484;28;20415;-58
2023/12/26 08:34:15;;;;;;;326.27;173.45;;;16.40;50.60;;;;;;4995849;28;20038;-58
2023/12/26 08:36:41;;;;;;;331.23;177.48;;;15.60;49.90;;;;;;4983641;28;20046;-58
2023/12/26 08:39:07;;;;;;;344.00;188.32;;;16.50;51.00;;;;;;4985015;28;20117;-58
2023/12/26 08:41:32;;;;;;;332.30;173.98;;;16.20;50.30;;;;;;4976667;28;20027;-58
2023/12/26 08:43:58;;;;;;;290.25;160.60;;;15.00;52.40;;;;;;4985890;28;20018;-58
2023/12/26 08:46:24;;;;;;;307.40;156.35;;;15.80;50.70;;;;;;4997606;28;20058;-58
2023/12/26 08:48:50;;;;;;;272.60;140.68;;;16.80;50.50;;;;;;4995196;28;20046;-58
2023/12/26 08:51:17;;;;;;;254.65;136.55;;;17.70;46.00;;;;;;4995650;28;20389;-58
2023/12/26 08:53:42;;;;;;;224.88;128.02;;;18.40;46.10;;;;;;4988442;28;20057;-58
2023/12/26 08:56:08;;;;;;;301.15;159.02;;;17.40;45.50;;;;;;4994438;28;20450;-58
2023/12/26 08:58:35;;;;;;;243.43;129.55;;;16.90;48.10;;;;;;4995819;28;20484;-58
2023/12/26 09:01:01;;;;;;;268.95;137.82;;;17.10;45.90;;;;;;4995293;28;20042;-58
2023/12/26 09:03:27;;;;;;;266.25;139.38;;;17.00;47.40;;;;;;4995208;28;20031;-58
2023/12/26 09:05:54;;;;;;;227.02;118.25;;;18.00;45.80;;;;;;4994149;28;20374;-58
2023/12/26 09:08:20;;;;;;;211.18;111.70;;;18.20;44.50;;;;;;4995469;28;20487;-58
2023/12/26 09:10:46;;;;;;;200.02;109.45;;;18.50;42.70;;;;;;4992545;28;20030;-58
2023/12/26 09:16:52;;;;;;;187.18;97.72;;;17.60;43.80;;;;;;4986076;28;20057;-58
2023/12/26 09:19:18;;;;;;;207.35;105.90;;;17.20;45.20;;;;;;4991415;28;20137;-58
2023/12/26 09:25:25;;;;;;;200.35;102.03;;;17.80;45.90;;;;;;4976393;28;20041;-58
2023/12/26 09:27:50;;;;;;;188.90;94.93;;;18.70;45.30;;;;;;4975671;28;20461;-58
2023/12/26 09:30:18;;;;;;;188.00;96.13;;;19.00;42.40;;;;;;4976434;28;20112;-58
2023/12/26 09:32:44;;;;;;;163.57;90.22;;;18.30;42.50;;;;;;4976232;28;20027;-58
2023/12/26 09:35:12;;;;;;;149.43;85.07;;;18.70;42.80;;;;;;4978048;28;20027;-58
2023/12/26 09:37:38;;;;;;;153.32;86.43;;;18.80;41.80;;;;;;4979825;28;20046;-58
2023/12/26 09:43:45;;;;;;;;;;;18.30;44.80;;;;;;4980066;28;20308;-58
2023/12/26 09:46:11;;;;;;;148.20;78.82;;;18.80;43.20;;;;;;4979811;28;20184;-58
2023/12/26 09:48:37;;;;;;;132.68;74.75;;;19.80;42.60;;;;;;4980498;28;20428;-58
2023/12/26 09:51:08;;;;;;;149.00;76.75;;;19.40;41.40;;;;;;4998035;28;20035;-58
2023/12/26 09:53:38;;;;;;;139.65;73.32;;;19.80;40.60;;;;;;4995159;28;20105;-58
2023/12/26 09:56:06;;;;;;;126.05;71.35;;;19.70;40.30;;;;;;4988417;28;20034;-58
2023/12/26 09:58:34;;;;;;;137.15;76.03;;;19.30;41.80;;;;;;4998918;28;20026;-58
2023/12/26 10:01:02;;;;;;;126.82;75.28;;;19.90;40.70;;;;;;4998335;28;20037;-58
2023/12/26 10:03:28;;;;;;;147.85;79.88;;;20.80;39.00;;;;;;4998940;28;20038;-58
2023/12/26 10:05:57;;;;;;;139.85;81.70;;;21.10;37.30;;;;;;4990442;28;20026;-58
2023/12/26 10:08:24;;;;;;;144.82;78.10;;;20.60;37.20;;;;;;4984161;28;20062;-58
2023/12/26 10:10:50;;;;;;;138.68;76.63;;;20.40;37.60;;;;;;5004314;28;20484;-58
2023/12/26 10:13:15;;;;;;;138.20;71.32;;;20.60;37.40;;;;;;5008626;28;20038;-58
2023/12/26 10:15:42;;;;;;;130.38;69.10;;;20.40;37.80;;;;;;4998477;28;20105;-58
2023/12/26 10:18:10;;;;;;;119.80;65.63;;;21.10;37.00;;;;;;4998341;28;20030;-58
2023/12/26 10:20:36;;;;;;;100.40;60.67;;;21.60;35.40;;;;;;4998182;28;20026;-58
2023/12/26 10:23:06;;;;;;;124.35;72.07;;;21.60;35.20;;;;;;5008298;28;20375;-58
2023/12/26 10:25:31;;;;;;;106.85;62.13;;;20.70;36.20;;;;;;5017855;28;20033;-58
2023/12/26 10:27:59;;;;;;;88.15;52.15;;;20.90;35.80;;;;;;5017902;28;20036;-58
2023/12/26 10:30:25;;;;;;;100.07;59.08;;;21.30;34.50;;;;;;4997803;28;20034;-58
2023/12/26 10:33:06;;;;;;;91.72;47.45;;;21.60;33.10;;;;;;4995678;28;20041;-58
2023/12/26 10:35:34;;;;;;;90.68;46.50;;;22.20;33.10;;;;;;4996402;28;20053;-58
2023/12/26 10:38:02;;;;;;;80.90;34.95;;;21.90;32.80;;;;;;4994682;28;20329;-58
2023/12/26 10:40:29;;;;;;;54.47;28.30;;;21.30;32.20;;;;;;5002492;28;20026;-58
2023/12/26 10:43:03;;;;;;;69.32;33.30;;;20.90;32.40;;;;;;4997337;28;20034;-59
2023/12/26 10:45:31;;;;;;;66.68;35.13;;;22.00;31.60;;;;;;4993285;28;20026;-58
2023/12/26 10:47:58;;;;;;;58.40;33.08;;;22.50;31.00;;;;;;4978318;28;20027;-58
2023/12/26 10:50:27;;;;;;;73.43;34.38;;;22.60;31.30;;;;;;4978226;28;20047;-58
2023/12/26 10:52:55;;;;;;;71.65;35.13;;;22.80;29.80;;;;;;4978392;28;20038;-58
2023/12/26 10:55:22;;;;;;;73.28;36.38;;;23.30;29.30;;;;;;4978368;28;20473;-58
2023/12/26 10:57:48;;;;;;;76.25;36.40;;;23.80;29.50;;;;;;4978495;28;20043;-58
2023/12/26 11:00:14;;;;;;;95.28;47.17;;;24.10;27.90;;;;;;4977648;28;20046;-58
2023/12/26 11:02:42;;;;;;;100.45;50.47;;;24.00;28.90;;;;;;4978430;28;20031;-58
2023/12/26 11:05:08;;;;;;;93.03;40.70;;;24.50;28.00;;;;;;4988758;28;20361;-58
2023/12/26 11:07:34;;;;;;;113.55;63.45;;;24.50;27.40;;;;;;4998711;28;20045;-58
2023/12/26 11:10:00;;;;;;;97.43;48.92;;;24.50;27.70;;;;;;4992097;28;20038;-58
2023/12/26 11:12:26;;;;;;;71.38;37.45;;;25.20;26.00;;;;;;4980037;28;20358;-58
2023/12/26 11:14:53;;;;;;;73.15;35.08;;;25.60;25.80;;;;;;4978453;28;20459;-59
2023/12/26 11:17:19;;;;;;;61.35;27.15;;;25.40;25.70;;;;;;4995803;28;20034;-58
2023/12/26 11:19:45;;;;;;;54.53;23.77;;;25.60;25.40;;;;;;4997387;28;20498;-58
2023/12/26 11:22:11;;;;;;;85.78;42.28;;;25.50;25.40;;;;;;5001391;28;20137;-58
2023/12/26 11:24:37;;;;;;;77.35;35.22;;;25.80;24.10;;;;;;5017018;28;20030;-59
2023/12/26 11:27:03;;;;;;;40.20;19.35;;;25.40;24.80;;;;;;5016909;28;20472;-58
2023/12/26 11:29:29;;;;;;;55.83;29.55;;;25.00;24.20;;;;;;5003506;28;20463;-58
2023/12/26 11:31:55;;;;;;;61.63;29.33;;;25.40;24.70;;;;;;4985950;28;20031;-58
2023/12/26 11:34:22;;;;;;;68.43;33.20;;;25.20;24.70;;;;;;4990785;28;20061;-58
2023/12/26 11:36:48;;;;;;;57.40;26.70;;;25.20;25.60;;;;;;5010861;28;20061;-58
2023/12/26 11:39:17;;;;;;;56.15;27.90;;;25.00;25.10;;;;;;5006865;28;20045;-59
2023/12/26 11:41:44;;;;;;;51.20;28.23;;;25.20;25.10;;;;;;4987300;28;20074;-58
2023/12/26 11:44:10;;;;;;;57.08;29.60;;;25.10;24.00;;;;;;4987124;28;20029;-58
2023/12/26 11:46:37;;;;;;;45.47;24.90;;;25.60;24.10;;;;;;4996652;28;20077;-58
2023/12/26 11:49:03;;;;;;;54.10;25.40;;;25.30;23.40;;;;;;4996295;28;20109;-58
2023/12/26 11:51:29;;;;;;;65.97;27.38;;;25.70;23.20;;;;;;5003864;28;20045;-58
2023/12/26 11:53:55;;;;;;;68.35;28.35;;;25.20;23.40;;;;;;4988834;28;20337;-58
2023/12/26 11:56:20;;;;;;;53.47;23.83;;;23.80;25.70;;;;;;4994109;28;20034;-58
2023/12/26 11:58:46;;;;;;;59.85;24.52;;;23.70;25.70;;;;;;4994686;28;20117;-58
2023/12/26 12:01:12;;;;;;;50.08;25.30;;;24.10;25.10;;;;;;4996427;28;20121;-58
2023/12/26 12:03:38;;;;;;;56.67;26.25;;;24.70;24.20;;;;;;4995440;28;20038;-58
2023/12/26 12:06:16;;;;;;;54.10;25.95;;;24.70;24.60;;;;;;5006163;28;20422;-58
2023/12/26 12:09:04;;;;;;;49.90;23.20;;;24.90;24.40;;;;;;5014413;28;20042;-58
2023/12/26 12:11:31;;;;;;;46.15;23.85;;;24.80;24.50;;;;;;5015007;28;20433;-58
2023/12/26 12:13:56;;;;;;;41.88;19.80;;;25.00;24.40;;;;;;5015048;28;20105;-58
2023/12/26 12:16:24;;;;;;;37.28;19.20;;;25.00;23.90;;;;;;5015372;28;20067;-58
2023/12/26 12:19:03;;;;;;;37.70;19.30;;;25.10;23.90;;;;;;5015111;28;20431;-58
2023/12/26 12:21:36;;;;;;;53.95;20.70;;;25.60;22.40;;;;;;4996364;28;20030;-58
2023/12/26 12:24:04;;;;;;;37.70;18.30;;;25.10;22.70;;;;;;4994609;28;20109;-58
2023/12/26 12:27:05;;;;;;;40.65;18.92;;;25.00;22.80;;;;;;4996398;28;20027;-58
2023/12/26 12:30:04;;;;;;;35.83;18.13;;;25.20;23.60;;;;;;5015435;28;20034;-58